.
WxDataArchive / Data Records for 2014-02-03
2014-02-02 February 2014 2014-02-04

Data Records for Monday, 03 February 2014

Time	Temp	Chill	HIndex	Humid	Dewpt	 Wind 	HiWind	WindDir	Rain 	Barom 
-----	----	-----	------	-----	-----	------	------	-------	-----	----- 
00:00	17.5	17.5	17.5	77	11.5	0	0	---	0.00	30.292 
00:05	17.3	17.3	17.3	77	11.3	0	1	22	0.00	30.292 
00:10	17.3	17.3	17.3	77	11.3	0	1	22	0.00	30.292 
00:15	17.3	17.3	17.3	77	11.3	0	1	22	0.00	30.277 
00:20	17.2	17.2	17.2	77	11.3	0	1	22	0.00	30.277 
00:25	17.2	17.2	17.2	77	11.3	0	1	22	0.00	30.277 
00:30	17.2	17.2	17.2	77	11.3	0	2	22	0.00	30.275 
00:35	17.0	17.0	17.0	77	11.1	0	1	22	0.00	30.275 
00:40	17.0	17.0	17.0	77	11.1	0	2	0	0.00	30.275 
00:45	17.0	17.0	17.0	77	11.1	0	1	0	0.00	30.248 
00:50	17.0	17.0	17.0	77	11.1	0	2	0	0.00	30.248 
00:55	16.9	16.9	16.9	77	11.0	0	1	0	0.00	30.248 
01:00	16.7	16.7	16.7	77	10.8	0	0	---	0.00	30.267 
01:05	16.5	16.5	16.5	77	10.6	0	1	0	0.00	30.267 
01:10	16.4	16.4	16.4	77	10.5	0	0	---	0.00	30.267 
01:15	16.2	16.2	16.2	77	10.3	0	0	---	0.00	30.268 
01:20	16.2	16.2	16.2	77	10.3	0	1	0	0.00	30.268 
01:25	16.1	16.1	16.1	78	10.5	0	1	0	0.00	30.268 
01:30	16.1	16.1	16.1	78	10.5	0	1	0	0.00	30.275 
01:35	16.1	16.1	16.1	78	10.5	0	1	0	0.00	30.275 
01:40	16.1	16.1	16.1	78	10.5	0	1	0	0.00	30.275 
01:45	15.9	15.9	15.9	78	10.3	0	1	0	0.00	30.256 
01:50	15.9	15.9	15.9	78	10.3	0	2	0	0.00	30.256 
01:55	15.9	15.9	15.9	78	10.3	0	1	0	0.00	30.256 
02:00	15.9	15.9	15.9	78	10.3	0	1	0	0.00	30.275 
02:05	15.9	15.9	15.9	78	10.3	0	1	0	0.00	30.275 
02:10	15.9	15.9	15.9	79	10.6	0	1	0	0.00	30.275 
02:15	15.9	15.9	15.9	78	10.3	0	1	0	0.00	30.273 
02:20	15.7	15.7	15.7	78	10.1	0	1	0	0.00	30.273 
02:25	15.7	15.7	15.7	78	10.1	0	1	0	0.00	30.273 
02:30	15.6	15.6	15.6	79	10.3	0	1	0	0.00	30.280 
02:35	15.6	15.6	15.6	79	10.3	0	1	0	0.00	30.280 
02:40	15.6	15.6	15.6	79	10.3	0	1	0	0.00	30.280 
02:45	15.4	15.4	15.4	79	10.1	0	2	0	0.00	30.263 
02:50	15.4	15.4	15.4	78	9.8	0	3	0	0.00	30.263 
02:55	15.2	15.2	15.2	78	9.6	0	2	0	0.00	30.263 
03:00	15.2	15.2	15.2	78	9.6	0	3	338	0.00	30.258 
03:05	15.1	15.1	15.1	78	9.5	0	1	338	0.00	30.258 
03:10	14.9	14.9	14.9	78	9.3	0	1	338	0.00	30.258 
03:15	14.6	14.6	14.6	78	9.0	0	1	338	0.00	30.266 
03:20	14.6	14.6	14.6	78	9.0	0	1	338	0.00	30.266 
03:25	14.4	14.4	14.4	78	8.8	0	1	338	0.00	30.266 
03:30	14.3	14.3	14.3	78	8.7	0	1	338	0.00	30.288 
03:35	14.1	14.1	14.1	78	8.5	0	0	---	0.00	30.288 
03:40	14.0	14.0	14.0	79	8.7	0	1	338	0.00	30.288 
03:45	14.0	14.0	14.0	79	8.7	0	1	338	0.00	30.286 
03:50	14.0	14.0	14.0	79	8.7	0	1	338	0.00	30.286 
03:55	13.8	13.8	13.8	80	8.8	0	1	338	0.00	30.286 
04:00	13.8	13.8	13.8	80	8.8	0	1	338	0.00	30.281 
04:05	13.8	13.8	13.8	80	8.8	0	1	338	0.00	30.281 
04:10	13.8	13.8	13.8	80	8.8	0	2	338	0.00	30.281 
04:15	13.6	13.6	13.6	80	8.6	0	1	338	0.00	30.268 
04:20	13.5	13.5	13.5	80	8.5	0	1	338	0.00	30.268 
04:25	13.5	13.5	13.5	81	8.8	0	1	338	0.00	30.268 
04:30	13.5	13.5	13.5	81	8.8	0	2	338	0.00	30.265 
04:35	13.5	13.5	13.5	81	8.8	0	3	338	0.00	30.265 
04:40	13.5	13.5	13.5	81	8.8	0	1	338	0.00	30.265 
04:45	13.3	13.3	13.3	81	8.6	0	2	338	0.00	30.264 
04:50	13.1	13.1	13.1	80	8.1	0	1	338	0.00	30.264 
04:55	12.9	12.9	12.9	80	7.9	0	1	338	0.00	30.264 
05:00	12.8	12.8	12.8	80	7.8	0	1	338	0.00	30.269 
05:05	12.4	12.4	12.4	80	7.4	0	1	338	0.00	30.269 
05:10	12.4	12.4	12.4	81	7.7	0	2	338	0.00	30.269 
05:15	12.3	12.3	12.3	81	7.6	0	1	338	0.00	30.280 
05:20	12.3	12.3	12.3	81	7.6	0	1	338	0.00	30.280 
05:25	12.1	12.1	12.1	81	7.4	0	0	---	0.00	30.280 
05:30	11.9	11.9	11.9	81	7.2	0	0	---	0.00	30.290 
05:35	11.7	11.7	11.7	81	7.0	0	0	---	0.00	30.290 
05:40	11.6	11.6	11.6	81	6.9	0	1	338	0.00	30.290 
05:45	11.2	11.2	11.2	81	6.5	0	1	338	0.00	30.295 
05:50	11.2	11.2	11.2	81	6.5	0	1	338	0.00	30.295 
05:55	11.1	11.1	11.1	81	6.4	0	1	338	0.00	30.295 
06:00	10.9	10.9	10.9	81	6.2	0	0	---	0.00	30.303 
06:05	10.7	10.7	10.7	81	6.0	0	0	---	0.00	30.303 
06:10	10.7	10.7	10.7	81	6.0	0	0	---	0.00	30.303 
06:15	10.5	10.5	10.5	81	5.8	0	0	---	0.00	30.300 
06:20	10.5	10.5	10.5	81	5.8	0	1	338	0.00	30.300 
06:25	10.4	10.4	10.4	81	5.7	0	0	---	0.00	30.300 
06:30	10.2	10.2	10.2	82	5.8	0	0	---	0.00	30.305 
06:35	10.0	10.0	10.0	82	5.6	0	0	---	0.00	30.305 
06:40	9.9	9.9	9.9	82	5.5	0	0	---	0.00	30.305 
06:45	9.9	9.9	9.9	82	5.5	0	0	---	0.00	30.311 
06:50	9.9	9.9	9.9	82	5.5	0	1	338	0.00	30.311 
06:55	9.7	9.7	9.7	82	5.3	0	1	338	0.00	30.311 
07:00	9.7	9.7	9.7	82	5.3	0	0	---	0.00	30.317 
07:05	9.5	9.5	9.5	82	5.1	0	0	---	0.00	30.317 
07:10	9.3	9.3	9.3	82	4.9	0	0	---	0.00	30.317 
07:15	9.2	9.2	9.2	82	4.8	0	0	---	0.00	30.328 
07:20	9.2	9.2	9.2	82	4.8	0	0	---	0.00	30.328 
07:25	8.8	8.8	8.8	82	4.5	0	0	---	0.00	30.328 
07:30	8.8	8.8	8.8	82	4.5	0	0	---	0.00	30.331 
07:35	8.6	8.6	8.6	82	4.3	0	0	---	0.00	30.331 
07:40	8.6	8.6	8.6	83	4.5	0	0	---	0.00	30.331 
07:45	8.6	8.6	8.6	83	4.5	0	0	---	0.00	30.339 
07:50	8.6	8.6	8.6	83	4.5	0	0	---	0.00	30.339 
07:55	8.6	8.6	8.6	83	4.5	0	1	338	0.00	30.339 
08:00	8.6	8.6	8.6	83	4.5	0	0	---	0.00	30.345 
08:05	8.6	8.6	8.6	83	4.5	0	1	338	0.00	30.345 
08:10	8.6	8.6	8.6	83	4.5	0	0	---	0.00	30.345 
08:15	8.6	8.6	8.6	83	4.5	0	1	338	0.00	30.354 
08:20	8.6	8.6	8.6	83	4.5	0	0	---	0.00	30.354 
08:25	8.8	8.8	8.8	83	4.7	0	0	---	0.00	30.354 
08:30	9.0	9.0	9.0	83	4.9	0	1	338	0.00	30.359 
08:35	9.2	9.2	9.2	83	5.1	0	1	338	0.00	30.359 
08:40	9.5	9.5	9.5	83	5.4	0	0	---	0.00	30.359 
08:45	9.9	9.9	9.9	83	5.8	0	0	---	0.00	30.365 
08:50	10.2	10.2	10.2	83	6.1	0	1	338	0.00	30.365 
08:55	10.7	10.7	10.7	83	6.6	0	1	338	0.00	30.365 
09:00	11.1	11.1	11.1	82	6.7	0	1	338	0.00	30.372 
09:05	11.4	11.4	11.4	82	7.0	0	1	338	0.00	30.372 
09:10	11.7	11.7	11.7	81	7.0	0	1	338	0.00	30.372 
09:15	12.1	12.1	12.1	81	7.4	0	1	338	0.00	30.374 
09:20	12.4	12.4	12.4	80	7.4	0	1	338	0.00	30.374 
09:25	12.8	12.8	12.8	80	7.8	0	1	338	0.00	30.374 
09:30	13.3	13.3	13.3	79	8.0	0	1	338	0.00	30.384 
09:35	13.6	13.6	13.6	78	8.0	0	0	---	0.00	30.384 
09:40	14.1	14.1	14.1	78	8.5	0	1	338	0.00	30.384 
09:45	14.9	14.9	14.9	77	9.0	0	1	338	0.00	30.380 
09:50	15.9	15.9	15.9	75	9.4	0	1	338	0.00	30.380 
09:55	16.7	16.7	16.7	73	9.6	0	1	338	0.00	30.380 
10:00	17.3	17.3	17.3	71	9.5	0	1	338	0.00	30.383 
10:05	18.0	18.0	18.0	69	9.6	0	1	338	0.00	30.383 
10:10	18.1	18.1	18.1	67	9.0	1	3	90	0.00	30.383 
10:15	18.4	18.4	18.4	67	9.3	0	1	90	0.00	30.382 
10:20	18.4	18.4	18.4	66	9.0	0	2	90	0.00	30.382 
10:25	18.6	18.6	18.6	66	9.2	0	2	90	0.00	30.382 
10:30	18.8	18.8	18.8	66	9.4	0	2	90	0.00	30.384 
10:35	18.9	18.9	18.9	65	9.1	0	2	90	0.00	30.384 
10:40	18.9	18.9	18.9	66	9.4	0	1	90	0.00	30.384 
10:45	19.1	19.1	19.1	65	9.3	0	1	90	0.00	30.385 
10:50	18.9	18.9	18.9	65	9.1	1	3	0	0.00	30.385 
10:55	19.1	19.1	19.1	66	9.6	0	3	68	0.00	30.385 
11:00	19.4	19.4	19.4	65	9.6	0	1	68	0.00	30.384 
11:05	19.5	19.5	19.5	65	9.7	0	3	68	0.00	30.384 
11:10	19.7	19.7	19.7	65	9.9	0	2	22	0.00	30.384 
11:15	19.9	19.9	19.9	65	10.1	0	2	22	0.00	30.387 
11:20	20.0	20.0	20.0	65	10.2	0	1	22	0.00	30.387 
11:25	20.3	20.3	20.3	65	10.4	0	2	22	0.00	30.387 
11:30	20.3	20.3	20.3	65	10.4	1	5	112	0.00	30.381 
11:35	20.3	20.3	20.3	65	10.4	1	3	112	0.00	30.381 
11:40	20.3	20.3	20.3	65	10.4	0	2	112	0.00	30.381 
11:45	20.3	20.3	20.3	64	10.1	1	4	112	0.00	30.389 
11:50	20.5	20.5	20.5	65	10.6	0	3	112	0.00	30.389 
11:55	20.6	20.6	20.6	64	10.4	0	1	112	0.00	30.389 
12:00	20.8	20.8	20.8	64	10.6	0	2	112	0.00	30.377 
12:05	21.0	21.0	21.0	64	10.8	0	2	112	0.00	30.377 
12:10	21.1	21.1	21.1	64	10.9	0	1	112	0.00	30.377 
12:15	21.1	21.1	21.1	63	10.5	0	2	112	0.00	30.374 
12:20	21.3	21.3	21.3	62	10.3	0	3	112	0.00	30.374 
12:25	21.0	21.0	21.0	62	10.1	2	5	90	0.00	30.374 
12:30	21.0	21.0	21.0	63	10.4	1	4	112	0.00	30.366 
12:35	21.0	21.0	21.0	63	10.4	1	4	112	0.00	30.366 
12:40	20.8	20.8	20.8	62	9.9	0	2	112	0.00	30.366 
12:45	21.0	21.0	21.0	62	10.1	0	2	112	0.00	30.364 
12:50	21.1	21.1	21.1	62	10.1	2	5	112	0.00	30.364 
12:55	21.1	21.1	21.1	62	10.1	2	6	90	0.00	30.364 
13:00	21.1	21.1	21.1	62	10.1	2	4	112	0.00	30.348 
13:05	21.0	21.0	21.0	62	10.1	2	5	112	0.00	30.348 
13:10	20.8	20.8	20.8	62	9.9	2	5	112	0.00	30.348 
13:15	20.6	20.6	20.6	63	10.0	1	5	112	0.00	30.348 
13:20	20.6	20.6	20.6	63	10.0	1	3	112	0.00	30.348 
13:25	21.0	21.0	21.0	63	10.4	1	4	112	0.00	30.348 
13:30	21.0	21.0	21.0	64	10.8	1	3	112	0.00	30.358 
13:35	21.1	21.1	21.1	64	10.9	1	3	112	0.00	30.358 
13:40	21.0	21.0	21.0	63	10.4	1	4	112	0.00	30.358 
13:45	20.8	20.8	20.8	63	10.2	1	2	112	0.00	30.367 
13:50	20.8	20.8	20.8	63	10.2	0	3	112	0.00	30.367 
13:55	21.0	21.0	21.0	62	10.1	1	3	112	0.00	30.367 
14:00	21.3	21.3	21.3	62	10.3	0	2	112	0.00	30.358 
14:05	21.4	21.4	21.4	63	10.8	1	3	112	0.00	30.358 
14:10	21.8	21.8	21.8	62	10.8	0	2	112	0.00	30.358 
14:15	21.8	21.8	21.8	61	10.4	0	2	112	0.00	30.365 
14:20	21.9	21.9	21.9	61	10.5	0	2	112	0.00	30.365 
14:25	21.9	21.9	21.9	61	10.5	0	1	112	0.00	30.365 
14:30	21.9	21.9	21.9	60	10.2	1	3	112	0.00	30.368 
14:35	22.1	22.1	22.1	60	10.4	0	2	112	0.00	30.368 
14:40	22.2	22.2	22.2	60	10.5	0	1	112	0.00	30.368 
14:45	22.4	22.4	22.4	59	10.3	1	3	112	0.00	30.373 
14:50	22.5	22.5	22.5	60	10.7	1	4	112	0.00	30.373 
14:55	22.4	22.4	22.4	59	10.3	1	3	112	0.00	30.373 
15:00	22.4	22.4	22.4	59	10.3	1	4	112	0.00	30.367 
15:05	22.5	22.5	22.5	60	10.7	0	2	112	0.00	30.367 
15:10	22.7	22.7	22.7	60	10.9	0	2	112	0.00	30.367 
15:15	22.7	22.7	22.7	59	10.6	0	2	112	0.00	30.369 
15:20	22.9	22.9	22.9	59	10.7	0	2	112	0.00	30.369 
15:25	22.9	22.9	22.9	60	11.1	1	3	112	0.00	30.369 
15:30	22.9	22.9	22.9	61	11.5	1	3	112	0.00	30.383 
15:35	23.0	23.0	23.0	61	11.6	0	2	135	0.00	30.383 
15:40	23.2	23.2	23.2	60	11.4	0	3	135	0.00	30.383 
15:45	23.0	23.0	23.0	60	11.2	1	4	90	0.00	30.383 
15:50	22.7	22.7	22.7	61	11.3	3	5	112	0.00	30.383 
15:55	22.4	22.4	22.4	62	11.4	1	4	112	0.00	30.383 
16:00	22.4	22.4	22.4	62	11.4	1	3	112	0.00	30.383 
16:05	22.4	22.4	22.4	62	11.4	1	3	112	0.00	30.383 
16:10	22.2	22.2	22.2	61	10.8	2	4	112	0.00	30.383 
16:15	22.1	22.1	22.1	62	11.1	0	2	112	0.00	30.383 
16:20	22.1	22.1	22.1	62	11.1	1	3	112	0.00	30.383 
16:25	21.9	21.9	21.9	62	10.9	0	1	112	0.00	30.383 
16:30	21.9	21.9	21.9	62	10.9	0	2	135	0.00	30.380 
16:35	21.8	21.8	21.8	62	10.8	1	3	135	0.00	30.380 
16:40	21.8	21.8	21.8	62	10.8	0	2	158	0.00	30.380 
16:45	21.8	21.8	21.8	62	10.8	0	2	158	0.00	30.368 
16:50	21.6	21.6	21.6	62	10.6	0	2	158	0.00	30.368 
16:55	21.6	21.6	21.6	63	11.0	0	2	158	0.00	30.368 
17:00	21.4	21.4	21.4	63	10.8	0	3	158	0.00	30.360 
17:05	21.3	21.3	21.3	63	10.7	0	1	135	0.00	30.360 
17:10	21.1	21.1	21.1	63	10.5	0	2	135	0.00	30.360 
17:15	21.0	21.0	21.0	64	10.8	0	1	135	0.00	30.362 
17:20	20.8	20.8	20.8	64	10.6	0	2	135	0.00	30.362 
17:25	20.6	20.6	20.6	65	10.7	0	2	135	0.00	30.362 
17:30	20.5	20.5	20.5	65	10.6	0	2	135	0.00	30.364 
17:35	20.3	20.3	20.3	65	10.4	0	1	135	0.00	30.364 
17:40	20.2	20.2	20.2	66	10.7	0	1	135	0.00	30.364 
17:45	19.9	19.9	19.9	66	10.4	0	1	135	0.00	30.374 
17:50	19.7	19.7	19.7	66	10.2	0	1	135	0.00	30.374 
17:55	19.4	19.4	19.4	67	10.3	0	1	135	0.00	30.374 
18:00	19.2	19.2	19.2	67	10.1	0	0	---	0.00	30.386 
18:05	18.8	18.8	18.8	67	9.7	0	0	---	0.00	30.386 
18:10	18.4	18.4	18.4	68	9.6	0	0	---	0.00	30.386 
18:15	18.0	18.0	18.0	69	9.6	0	0	---	0.00	30.386 
18:20	17.7	17.7	17.7	70	9.6	0	0	---	0.00	30.386 
18:25	17.2	17.2	17.2	70	9.1	0	0	---	0.00	30.386 
18:30	16.9	16.9	16.9	70	8.8	0	0	---	0.00	30.395 
18:35	16.4	16.4	16.4	71	8.7	0	0	---	0.00	30.395 
18:40	16.1	16.1	16.1	71	8.4	0	0	---	0.00	30.395 
18:45	15.6	15.6	15.6	72	8.2	0	0	---	0.00	30.404 
18:50	15.2	15.2	15.2	72	7.8	0	0	---	0.00	30.404 
18:55	15.1	15.1	15.1	74	8.3	0	0	---	0.00	30.404 
19:00	14.8	14.8	14.8	75	8.3	0	0	---	0.00	30.409 
19:05	14.6	14.6	14.6	76	8.4	0	0	---	0.00	30.409 
19:10	14.3	14.3	14.3	77	8.4	0	0	---	0.00	30.409 
19:15	14.1	14.1	14.1	77	8.2	0	0	---	0.00	30.408 
19:20	13.8	13.8	13.8	77	7.9	0	0	---	0.00	30.408 
19:25	13.5	13.5	13.5	77	7.7	0	0	---	0.00	30.408 
19:30	13.3	13.3	13.3	78	7.7	0	0	---	0.00	30.408 
19:35	13.1	13.1	13.1	79	7.8	0	0	---	0.00	30.408 
19:40	12.9	12.9	12.9	80	7.9	0	0	---	0.00	30.408 
19:45	12.8	12.8	12.8	81	8.1	0	0	---	0.00	30.400 
19:50	12.8	12.8	12.8	81	8.1	0	0	---	0.00	30.400 
19:55	12.8	12.8	12.8	81	8.1	0	0	---	0.00	30.400 
20:00	12.6	12.6	12.6	81	7.9	0	0	---	0.00	30.403 
20:05	12.3	12.3	12.3	81	7.6	0	0	---	0.00	30.403 
20:10	12.1	12.1	12.1	81	7.4	0	0	---	0.00	30.403 
20:15	11.9	11.9	11.9	82	7.5	0	0	---	0.00	30.402 
20:20	11.9	11.9	11.9	82	7.5	0	0	---	0.00	30.402 
20:25	11.7	11.7	11.7	82	7.3	0	0	---	0.00	30.402 
20:30	11.4	11.4	11.4	82	7.0	0	0	---	0.00	30.397 
20:35	11.2	11.2	11.2	83	7.1	0	0	---	0.00	30.397 
20:40	11.2	11.2	11.2	83	7.1	0	0	---	0.00	30.397 
20:45	10.9	10.9	10.9	83	6.8	0	0	---	0.00	30.397 
20:50	10.7	10.7	10.7	83	6.6	0	0	---	0.00	30.397 
20:55	10.4	10.4	10.4	83	6.3	0	0	---	0.00	30.397 
21:00	10.4	10.4	10.4	83	6.3	0	0	---	0.00	30.411 
21:05	10.2	10.2	10.2	83	6.1	0	0	---	0.00	30.411 
21:10	10.0	10.0	10.0	83	5.9	0	0	---	0.00	30.411 
21:15	9.9	9.9	9.9	83	5.8	0	0	---	0.00	30.410 
21:20	9.9	9.9	9.9	84	6.1	0	0	---	0.00	30.410 
21:25	9.7	9.7	9.7	84	5.9	0	0	---	0.00	30.410 
21:30	9.5	9.5	9.5	84	5.7	0	0	---	0.00	30.416 
21:35	9.5	9.5	9.5	84	5.7	0	0	---	0.00	30.416 
21:40	9.3	9.3	9.3	84	5.5	0	0	---	0.00	30.416 
21:45	9.3	9.3	9.3	84	5.5	0	0	---	0.00	30.422 
21:50	9.2	9.2	9.2	84	5.4	0	0	---	0.00	30.422 
21:55	9.0	9.0	9.0	84	5.2	0	0	---	0.00	30.422 
22:00	9.0	9.0	9.0	84	5.2	0	0	---	0.00	30.421 
22:05	8.8	8.8	8.8	84	5.0	0	0	---	0.00	30.421 
22:10	8.8	8.8	8.8	84	5.0	0	0	---	0.00	30.421 
22:15	8.6	8.6	8.6	84	4.8	0	0	---	0.00	30.426 
22:20	8.6	8.6	8.6	84	4.8	0	0	---	0.00	30.426 
22:25	8.8	8.8	8.8	84	5.0	0	0	---	0.00	30.426 
22:30	8.8	8.8	8.8	84	5.0	0	0	---	0.00	30.438 
22:35	8.6	8.6	8.6	84	4.8	0	0	---	0.00	30.438 
22:40	8.6	8.6	8.6	84	4.8	0	0	---	0.00	30.438 
22:45	8.4	8.4	8.4	84	4.6	0	0	---	0.00	30.438 
22:50	8.3	8.3	8.3	84	4.5	0	0	---	0.00	30.438 
22:55	8.3	8.3	8.3	84	4.5	0	0	---	0.00	30.438 
23:00	8.3	8.3	8.3	84	4.5	0	0	---	0.00	30.439 
23:05	8.3	8.3	8.3	84	4.5	0	0	---	0.00	30.439 
23:10	8.1	8.1	8.1	84	4.3	0	0	---	0.00	30.439 
23:15	8.3	8.3	8.3	84	4.5	0	0	---	0.00	30.432 
23:20	8.3	8.3	8.3	84	4.5	0	0	---	0.00	30.432 
23:25	8.1	8.1	8.1	84	4.3	0	0	---	0.00	30.432 
23:30	7.9	7.9	7.9	84	4.1	0	0	---	0.00	30.430 
23:35	7.9	7.9	7.9	84	4.1	0	0	---	0.00	30.430 
23:40	7.7	7.7	7.7	84	3.9	0	0	---	0.00	30.430 
23:45	7.7	7.7	7.7	84	3.9	0	0	---	0.00	30.432 
23:50	7.6	7.6	7.6	84	3.8	0	0	---	0.00	30.432 
23:55	7.6	7.6	7.6	84	3.8	0	0	---	0.00	30.432 

CoCoRaHS
IN-AL-39
A2 Web Hosting
Creative Commons License
GoDaddy
search engine by freefind advanced

loaded 2018-11-13 23:24:44 • last modified 2010-11-18 10:43:29
Privacy PolicyDisclaimer
• wx.awcolley.com is powered by PmWiki v.2002016 •
• all content (unless otherwise noted) © 2018 A W Colley